createdAt,value
2022-11-11T00:01:47.595Z,10.27
2022-11-11T00:04:34.138Z,10.50
2022-11-11T00:07:20.593Z,9.82
2022-11-11T00:10:07.310Z,10.48
2022-11-11T00:12:53.693Z,10.13
2022-11-11T00:15:40.147Z,11.13
2022-11-11T00:18:45.188Z,8.60
2022-11-11T00:21:50.336Z,10.35
2022-11-11T00:24:54.992Z,10.18
2022-11-11T00:27:40.979Z,9.05
2022-11-11T00:30:27.339Z,8.38
2022-11-11T00:33:13.636Z,9.35
2022-11-11T00:36:00.630Z,8.43
2022-11-11T00:38:47.291Z,7.72
2022-11-11T00:41:33.764Z,7.05
2022-11-11T00:44:20.037Z,7.93
2022-11-11T00:47:24.850Z,7.47
2022-11-11T00:50:38.690Z,6.80
2022-11-11T00:53:27.406Z,8.82
2022-11-11T00:56:14.410Z,7.22
2022-11-11T00:59:00.762Z,7.35
2022-11-11T01:01:47.330Z,7.65
2022-11-11T01:04:33.485Z,7.55
2022-11-11T01:07:20.071Z,8.20
2022-11-11T01:10:09.724Z,8.25
2022-11-11T01:13:12.211Z,7.50
2022-11-11T01:16:03.663Z,8.13
2022-11-11T01:18:51.037Z,7.18
2022-11-11T01:21:37.262Z,8.43
2022-11-11T01:24:23.602Z,7.40
2022-11-11T01:27:10.127Z,7.90
2022-11-11T01:29:56.607Z,7.55
2022-11-11T01:32:43.003Z,7.55
2022-11-11T01:35:29.336Z,6.60
2022-11-11T01:38:15.481Z,6.93
2022-11-11T01:41:22.083Z,6.63
2022-11-11T01:44:14.718Z,6.00
2022-11-11T01:47:02.558Z,6.85
2022-11-11T01:49:54.385Z,6.65
2022-11-11T01:52:42.874Z,6.20
2022-11-11T01:55:28.969Z,6.00
2022-11-11T01:58:16.811Z,5.68
2022-11-11T02:01:03.407Z,6.13
2022-11-11T02:04:11.033Z,5.78
2022-11-11T02:06:59.460Z,5.45
2022-11-11T02:09:47.712Z,5.45
2022-11-11T02:12:52.611Z,5.90
2022-11-11T02:15:39.023Z,5.97
2022-11-11T02:18:25.664Z,6.35
2022-11-11T02:21:15.701Z,6.22
2022-11-11T02:24:08.352Z,6.32
2022-11-11T02:26:58.482Z,6.50
2022-11-11T02:29:47.064Z,6.50
2022-11-11T02:32:33.986Z,6.38
2022-11-11T02:35:30.590Z,5.85
2022-11-11T02:38:17.072Z,6.38
2022-11-11T02:41:22.055Z,5.65
2022-11-11T02:44:08.294Z,5.78
2022-11-11T02:46:54.631Z,5.90
2022-11-11T02:49:41.219Z,6.35
2022-11-11T02:52:27.604Z,5.80
2022-11-11T02:55:14.215Z,4.70
2022-11-11T02:58:01.175Z,6.18
2022-11-11T03:00:47.446Z,6.10
2022-11-11T03:03:33.973Z,5.68
2022-11-11T03:06:20.288Z,5.90
2022-11-11T03:09:06.502Z,6.13
2022-11-11T03:11:53.081Z,6.82
2022-11-11T03:14:39.763Z,7.55
2022-11-11T03:17:41.373Z,7.30
2022-11-11T03:20:46.496Z,7.53
2022-11-11T03:23:32.909Z,7.60
2022-11-11T03:26:19.509Z,7.88
2022-11-11T03:29:06.074Z,7.13
2022-11-11T03:31:52.454Z,7.03
2022-11-11T03:34:38.805Z,6.75
2022-11-11T03:37:43.651Z,6.60
2022-11-11T03:40:29.972Z,6.57
2022-11-11T03:43:17.404Z,6.35
2022-11-11T03:46:04.942Z,6.28
2022-11-11T03:48:51.236Z,6.57
2022-11-11T03:51:37.651Z,6.22
2022-11-11T03:54:24.040Z,6.88
2022-11-11T03:57:29.026Z,6.82
2022-11-11T04:00:16.513Z,7.30
2022-11-11T04:03:27.628Z,7.80
2022-11-11T04:06:32.595Z,7.38
2022-11-11T04:09:37.429Z,7.25
2022-11-11T04:12:24.036Z,7.88
2022-11-11T04:15:29.026Z,6.78
2022-11-11T04:18:15.038Z,7.22
2022-11-11T04:21:20.028Z,8.18
2022-11-11T04:24:25.717Z,9.75
2022-11-11T04:27:13.299Z,9.20
2022-11-11T04:29:59.508Z,7.97
2022-11-11T04:32:47.768Z,7.88
2022-11-11T04:35:33.829Z,8.23
2022-11-11T04:38:38.816Z,8.10
2022-11-11T04:41:36.172Z,7.35
2022-11-11T04:44:49.980Z,8.00
2022-11-11T04:47:36.307Z,7.82
2022-11-11T04:50:23.265Z,6.80
2022-11-11T04:53:11.039Z,7.50
2022-11-11T04:56:15.632Z,7.78
2022-11-11T04:59:17.269Z,8.68
2022-11-11T05:02:22.038Z,8.50
2022-11-11T05:05:08.709Z,9.43
2022-11-11T05:08:13.868Z,9.32
2022-11-11T05:11:00.313Z,9.32
2022-11-11T05:14:05.984Z,11.48
2022-11-11T05:17:17.512Z,13.23
2022-11-11T05:20:22.434Z,11.98
2022-11-11T05:23:08.642Z,11.60
2022-11-11T05:25:55.017Z,12.30
2022-11-11T05:28:41.139Z,11.40
2022-11-11T05:31:28.159Z,11.77
2022-11-11T05:34:14.659Z,11.23
2022-11-11T05:37:00.941Z,11.00
2022-11-11T05:39:47.307Z,11.20
2022-11-11T05:42:33.974Z,11.52
2022-11-11T05:45:20.454Z,10.25
2022-11-11T05:48:06.952Z,11.50
2022-11-11T05:50:53.287Z,11.05
2022-11-11T05:53:39.514Z,11.95
2022-11-11T05:56:26.172Z,13.50
2022-11-11T05:59:12.015Z,12.77
2022-11-11T06:01:58.956Z,12.10
2022-11-11T06:04:44.955Z,12.10
2022-11-11T06:07:31.524Z,12.30
2022-11-11T06:10:32.727Z,11.15
2022-11-11T06:13:18.870Z,11.18
2022-11-11T06:16:05.411Z,10.95
2022-11-11T06:18:52.192Z,16.88
2022-11-11T06:21:56.809Z,13.07
2022-11-11T06:24:42.987Z,12.52
2022-11-11T06:27:29.230Z,10.93
2022-11-11T06:33:22.445Z,16.52
2022-11-11T06:36:09.031Z,17.98
2022-11-11T06:38:55.327Z,15.55
2022-11-11T06:41:41.703Z,14.30
2022-11-11T06:44:28.122Z,12.45
2022-11-11T06:47:15.987Z,12.05
2022-11-11T06:50:02.365Z,10.07
2022-11-11T06:52:48.735Z,10.95
2022-11-11T06:55:35.469Z,10.35
2022-11-11T06:58:22.028Z,11.95
2022-11-11T07:01:09.773Z,11.45
2022-11-11T07:03:55.788Z,9.77
2022-11-11T07:06:42.149Z,10.18
2022-11-11T07:09:28.771Z,9.02
2022-11-11T07:12:15.164Z,9.57
2022-11-11T07:15:01.591Z,9.65
2022-11-11T07:17:47.901Z,9.27
2022-11-11T07:20:34.327Z,8.95
2022-11-11T07:23:20.887Z,9.10
2022-11-11T07:26:07.046Z,7.40
2022-11-11T07:28:53.492Z,6.40
2022-11-11T07:31:39.839Z,6.57
2022-11-11T07:34:26.334Z,5.97
2022-11-11T07:37:12.553Z,5.55
2022-11-11T07:39:58.881Z,4.95
2022-11-11T07:42:45.515Z,5.97
2022-11-11T07:45:31.550Z,5.82
2022-11-11T07:48:17.949Z,6.55
2022-11-11T07:51:04.364Z,4.35
2022-11-11T07:53:50.709Z,5.60
2022-11-11T07:56:37.279Z,4.57
2022-11-11T07:59:23.710Z,5.53
2022-11-11T08:02:13.214Z,4.47
2022-11-11T08:04:59.338Z,4.95
2022-11-11T08:07:45.590Z,4.05
2022-11-11T08:10:32.301Z,4.75
2022-11-11T08:13:37.068Z,4.00
2022-11-11T08:16:23.334Z,4.05
2022-11-11T08:19:09.859Z,4.25
2022-11-11T08:21:55.982Z,4.50
2022-11-11T08:27:48.599Z,4.75
2022-11-11T08:30:35.126Z,4.90
2022-11-11T08:33:37.094Z,5.00
2022-11-11T08:36:23.834Z,4.75
2022-11-11T08:39:10.184Z,4.50
2022-11-11T08:41:56.392Z,3.58
2022-11-11T08:44:43.822Z,3.50
2022-11-11T08:47:30.056Z,3.70
2022-11-11T08:50:16.457Z,3.83
2022-11-11T08:53:02.992Z,3.47
2022-11-11T08:55:49.528Z,3.08
2022-11-11T08:58:35.909Z,3.92
2022-11-11T09:01:22.371Z,4.07
2022-11-11T09:04:38.115Z,4.25
2022-11-11T09:07:14.865Z,4.03
2022-11-11T09:10:01.090Z,4.28
2022-11-11T09:12:47.486Z,4.90
2022-11-11T09:15:34.407Z,5.35
2022-11-11T09:18:20.621Z,5.55
2022-11-11T09:21:07.174Z,5.85
2022-11-11T09:23:53.125Z,6.03
2022-11-11T09:26:39.468Z,5.65
2022-11-11T09:29:25.713Z,6.25
2022-11-11T09:32:11.925Z,6.10
2022-11-11T09:34:58.431Z,5.65
2022-11-11T09:37:53.836Z,6.72
2022-11-11T09:40:46.059Z,6.38
2022-11-11T09:43:38.348Z,7.57
2022-11-11T09:46:42.933Z,7.50
2022-11-11T09:49:37.083Z,8.27
2022-11-11T09:52:27.579Z,8.02
2022-11-11T09:55:34.412Z,8.82
2022-11-11T09:58:24.289Z,7.88
2022-11-11T10:01:15.710Z,8.05
2022-11-11T10:04:06.454Z,9.63
2022-11-11T10:06:56.153Z,9.10
2022-11-11T10:09:52.736Z,8.98
2022-11-11T10:12:44.719Z,9.18
2022-11-11T10:15:35.978Z,8.77
2022-11-11T10:21:14.251Z,8.05
2022-11-11T10:24:02.572Z,9.50
2022-11-11T10:26:48.935Z,9.15
2022-11-11T10:29:41.031Z,9.15
2022-11-11T10:32:28.142Z,8.48
2022-11-11T10:35:33.305Z,8.60
2022-11-11T10:38:38.382Z,9.23
2022-11-11T10:41:27.664Z,8.02
2022-11-11T10:44:20.370Z,9.02
2022-11-11T10:47:16.418Z,8.30
2022-11-11T10:50:05.691Z,7.90
2022-11-11T10:52:57.219Z,8.10
2022-11-11T10:55:43.494Z,7.78
2022-11-11T10:58:35.930Z,8.43
2022-11-11T11:01:26.832Z,8.40
2022-11-11T11:04:17.861Z,8.32
2022-11-11T11:07:06.261Z,7.50
2022-11-11T11:09:57.566Z,7.97
2022-11-11T11:12:51.671Z,7.88
2022-11-11T11:15:40.806Z,8.10
2022-11-11T11:18:27.539Z,7.60
2022-11-11T11:21:14.034Z,7.95
2022-11-11T11:24:00.606Z,8.40
2022-11-11T11:26:48.855Z,8.10
2022-11-11T11:29:43.824Z,8.75
2022-11-11T11:32:33.326Z,6.78
2022-11-11T11:35:33.567Z,8.18
2022-11-11T11:38:19.817Z,8.07
2022-11-11T11:41:06.238Z,7.80
2022-11-11T11:43:52.694Z,8.13
2022-11-11T11:46:44.697Z,7.35
2022-11-11T11:49:31.003Z,6.70
2022-11-11T11:52:17.250Z,7.68
2022-11-11T11:55:16.072Z,7.13
2022-11-11T11:58:10.168Z,7.15
2022-11-11T12:01:03.703Z,7.15
2022-11-11T12:04:02.300Z,7.55
2022-11-11T12:06:57.310Z,7.45
2022-11-11T12:09:52.492Z,6.68
2022-11-11T12:12:49.151Z,8.30
2022-11-11T12:15:39.988Z,6.95
2022-11-11T12:18:36.181Z,6.85
2022-11-11T12:21:24.699Z,7.38
2022-11-11T12:24:14.027Z,6.82
2022-11-11T12:27:04.889Z,7.28
2022-11-11T12:32:48.921Z,6.75
2022-11-11T12:36:00.991Z,7.35
2022-11-11T12:39:06.847Z,6.97
2022-11-11T12:41:53.417Z,7.00
2022-11-11T12:44:46.547Z,6.75
2022-11-11T12:47:48.542Z,5.65
2022-11-11T12:50:44.185Z,6.57
2022-11-11T12:53:43.714Z,6.57
2022-11-11T12:56:46.698Z,7.43
2022-11-11T12:59:41.668Z,6.20
2022-11-11T13:02:38.861Z,6.80
2022-11-11T13:05:43.138Z,6.15
2022-11-11T13:08:29.164Z,6.40
2022-11-11T13:11:25.975Z,6.20
2022-11-11T13:14:31.417Z,6.28
2022-11-11T13:17:17.589Z,6.50
2022-11-11T13:20:41.095Z,6.05
2022-11-11T13:23:28.002Z,6.63
2022-11-11T13:26:28.031Z,5.95
2022-11-11T13:29:29.911Z,5.82
2022-11-11T13:32:18.476Z,6.03
2022-11-11T13:35:22.332Z,5.75
2022-11-11T13:38:11.942Z,5.82
2022-11-11T13:41:01.557Z,6.13
2022-11-11T13:43:50.540Z,6.18
2022-11-11T13:46:39.926Z,5.60
2022-11-11T13:49:35.319Z,5.85
2022-11-11T13:52:28.278Z,5.53
2022-11-11T13:55:25.561Z,5.63
2022-11-11T13:58:26.221Z,5.88
2022-11-11T14:01:15.686Z,5.32
2022-11-11T14:04:03.100Z,5.47
2022-11-11T14:06:53.596Z,5.72
2022-11-11T14:09:53.026Z,5.82
2022-11-11T14:12:41.119Z,4.65
2022-11-11T14:15:43.803Z,5.95
2022-11-11T14:18:43.586Z,5.38
2022-11-11T14:21:53.156Z,6.00
2022-11-11T14:24:46.046Z,5.10
2022-11-11T14:27:33.642Z,6.05
2022-11-11T14:30:39.788Z,5.80
2022-11-11T14:33:29.144Z,6.28
2022-11-11T14:36:18.456Z,5.82
2022-11-11T14:39:04.907Z,6.78
2022-11-11T14:41:52.828Z,6.78
2022-11-11T14:44:40.079Z,6.50
2022-11-11T14:47:32.633Z,6.13
2022-11-11T14:50:34.554Z,6.10
2022-11-11T14:53:25.460Z,6.80
2022-11-11T14:56:16.113Z,7.35
2022-11-11T14:59:07.901Z,6.70
2022-11-11T15:01:54.964Z,7.75
2022-11-11T15:04:41.517Z,7.05
2022-11-11T15:07:51.203Z,7.88
2022-11-11T15:10:45.028Z,7.93
2022-11-11T15:13:49.957Z,7.47
2022-11-11T15:16:54.585Z,8.27
2022-11-11T15:19:59.103Z,8.20
2022-11-11T15:25:51.163Z,8.18
2022-11-11T15:28:44.612Z,8.20
2022-11-11T15:31:37.271Z,8.63
2022-11-11T15:34:42.440Z,7.93
2022-11-11T15:37:28.641Z,8.73
2022-11-11T15:40:37.779Z,8.27
2022-11-11T15:43:26.765Z,9.30
2022-11-11T15:46:19.653Z,8.50
2022-11-11T15:49:05.891Z,9.70
2022-11-11T15:51:57.006Z,9.20
2022-11-11T15:54:43.099Z,9.05
2022-11-11T15:57:33.619Z,9.27
2022-11-11T16:00:25.864Z,8.38
2022-11-11T16:03:15.822Z,9.45
2022-11-11T16:06:04.849Z,8.60
2022-11-11T16:08:53.378Z,9.00
2022-11-11T16:11:40.154Z,9.82
2022-11-11T16:14:30.209Z,9.85
2022-11-11T16:17:16.845Z,9.40
2022-11-11T16:20:03.351Z,9.77
2022-11-11T16:22:50.107Z,9.48
2022-11-11T16:25:36.402Z,10.68
2022-11-11T16:28:23.700Z,11.00
2022-11-11T16:31:28.681Z,9.70
2022-11-11T16:34:25.486Z,9.93
2022-11-11T16:37:16.009Z,10.38
2022-11-11T16:40:21.461Z,10.45
2022-11-11T16:43:18.952Z,10.68
2022-11-11T16:46:06.638Z,10.98
2022-11-11T16:48:53.695Z,10.32
2022-11-11T16:51:39.844Z,10.50
2022-11-11T16:54:28.590Z,10.63
2022-11-11T16:57:17.539Z,11.20
2022-11-11T17:00:05.111Z,10.95
2022-11-11T17:03:08.296Z,9.75
2022-11-11T17:05:55.671Z,10.30
2022-11-11T17:08:43.774Z,11.30
2022-11-11T17:11:41.873Z,10.35
2022-11-11T17:14:29.748Z,11.02
2022-11-11T17:17:15.812Z,10.77
2022-11-11T17:20:04.930Z,10.68
2022-11-11T17:23:00.462Z,10.82
2022-11-11T17:25:46.502Z,12.07
2022-11-11T17:28:35.895Z,12.98
2022-11-11T17:31:24.073Z,12.40
2022-11-11T17:34:10.594Z,12.77
2022-11-11T17:36:56.927Z,11.80
2022-11-11T17:39:45.170Z,12.05
2022-11-11T17:42:31.327Z,13.38
2022-11-11T17:45:18.701Z,12.27
2022-11-11T17:48:05.281Z,16.08
2022-11-11T17:50:51.495Z,14.38
2022-11-11T17:53:38.511Z,13.75
2022-11-11T17:56:26.639Z,13.25
2022-11-11T17:59:13.346Z,13.90
2022-11-11T18:02:00.561Z,12.82
2022-11-11T18:04:46.878Z,12.82
2022-11-11T18:07:33.018Z,13.38
2022-11-11T18:10:19.558Z,13.32
2022-11-11T18:16:17.529Z,13.55
2022-11-11T18:19:06.027Z,14.25
2022-11-11T18:22:02.229Z,13.10
2022-11-11T18:24:52.682Z,13.18
2022-11-11T18:27:39.155Z,14.70
2022-11-11T18:30:32.965Z,14.38
2022-11-11T18:33:19.465Z,13.77
2022-11-11T18:36:07.350Z,14.90
2022-11-11T18:42:06.210Z,14.95
2022-11-11T18:44:52.695Z,15.52
2022-11-11T18:47:39.227Z,16.02
2022-11-11T18:50:25.856Z,14.77
2022-11-11T18:53:12.246Z,15.27
2022-11-11T18:56:03.238Z,15.93
2022-11-11T18:58:50.321Z,16.98
2022-11-11T19:01:39.593Z,17.30
2022-11-11T19:04:25.781Z,18.20
2022-11-11T19:07:12.260Z,18.70
2022-11-11T19:10:00.186Z,17.80
2022-11-11T19:12:48.285Z,19.23
2022-11-11T19:15:34.876Z,18.80
2022-11-11T19:18:21.423Z,17.00
2022-11-11T19:21:12.722Z,18.75
2022-11-11T19:23:59.344Z,18.65
2022-11-11T19:26:47.885Z,16.90
2022-11-11T19:29:42.390Z,17.67
2022-11-11T19:32:30.002Z,17.65
2022-11-11T19:35:16.582Z,18.00
2022-11-11T19:38:02.699Z,18.63
2022-11-11T19:40:49.337Z,17.35
2022-11-11T19:43:35.661Z,17.25
2022-11-11T19:46:22.118Z,18.10
2022-11-11T19:49:08.193Z,18.23
2022-11-11T19:51:54.588Z,17.67
2022-11-11T19:54:40.969Z,17.27
2022-11-11T19:57:27.912Z,17.42
2022-11-11T20:00:14.227Z,18.10
2022-11-11T20:03:02.423Z,18.52
2022-11-11T20:05:48.627Z,18.17
2022-11-11T20:08:35.589Z,17.85
2022-11-11T20:11:22.324Z,18.67
2022-11-11T20:14:09.596Z,17.35
2022-11-11T20:16:55.951Z,17.40
2022-11-11T20:19:42.336Z,20.90
2022-11-11T20:22:28.842Z,19.40
2022-11-11T20:25:15.250Z,19.35
2022-11-11T20:28:01.753Z,19.55
2022-11-11T20:30:48.433Z,18.90
2022-11-11T20:33:34.998Z,19.15
2022-11-11T20:36:22.213Z,20.60
2022-11-11T20:39:08.450Z,19.08
2022-11-11T20:41:54.873Z,18.65
2022-11-11T20:44:48.712Z,19.05
2022-11-11T20:47:34.817Z,19.17
2022-11-11T20:50:21.664Z,18.98
2022-11-11T20:53:07.657Z,19.17
2022-11-11T20:55:54.130Z,20.63
2022-11-11T20:58:41.115Z,19.20
2022-11-11T21:01:27.667Z,19.20
2022-11-11T21:04:13.993Z,19.45
2022-11-11T21:07:00.557Z,18.42
2022-11-11T21:09:46.734Z,20.00
2022-11-11T21:12:33.116Z,21.25
2022-11-11T21:15:19.694Z,19.45
2022-11-11T21:18:06.017Z,19.85
2022-11-11T21:20:52.314Z,20.52
2022-11-11T21:23:38.943Z,19.35
2022-11-11T21:26:25.269Z,20.42
2022-11-11T21:29:11.611Z,21.33
2022-11-11T21:31:57.955Z,20.85
2022-11-11T21:34:44.199Z,19.52
2022-11-11T21:37:30.582Z,20.88
2022-11-11T21:40:17.014Z,19.58
2022-11-11T21:43:04.449Z,19.35
2022-11-11T21:45:50.802Z,18.67
2022-11-11T21:48:37.548Z,19.58
2022-11-11T21:51:26.953Z,20.95
2022-11-11T21:54:14.158Z,20.10
2022-11-11T21:57:01.605Z,20.63
2022-11-11T21:59:49.160Z,20.27
2022-11-11T22:02:35.395Z,19.73
2022-11-11T22:05:22.392Z,20.67
2022-11-11T22:08:08.658Z,21.08
2022-11-11T22:10:55.244Z,17.75
2022-11-11T22:13:42.468Z,18.73
2022-11-11T22:16:30.277Z,19.58
2022-11-11T22:19:17.126Z,20.75
2022-11-11T22:22:03.690Z,18.45
2022-11-11T22:24:50.060Z,19.38
2022-11-11T22:27:36.380Z,21.35
2022-11-11T22:30:22.775Z,17.35
2022-11-11T22:33:08.619Z,18.15
2022-11-11T22:35:58.085Z,15.77
2022-11-11T22:38:44.827Z,16.20
2022-11-11T22:41:32.508Z,15.93
2022-11-11T22:44:18.518Z,15.73
2022-11-11T22:47:04.686Z,14.52
2022-11-11T22:49:50.942Z,14.27
2022-11-11T22:52:37.298Z,14.57
2022-11-11T22:55:23.620Z,16.30
2022-11-11T22:58:10.112Z,15.60
2022-11-11T23:00:56.160Z,13.40
2022-11-11T23:03:44.429Z,13.15
2022-11-11T23:06:32.201Z,11.60
2022-11-11T23:09:18.349Z,12.10
2022-11-11T23:12:04.645Z,11.25
2022-11-11T23:14:51.100Z,12.15
2022-11-11T23:17:37.642Z,13.15
2022-11-11T23:20:24.118Z,11.05
2022-11-11T23:23:11.677Z,11.07
2022-11-11T23:26:02.457Z,10.35
2022-11-11T23:28:49.774Z,10.07
2022-11-11T23:31:36.053Z,10.70
2022-11-11T23:34:22.599Z,12.25
2022-11-11T23:37:35.599Z,13.18
2022-11-11T23:40:27.211Z,11.32
2022-11-11T23:43:13.419Z,10.45
2022-11-11T23:45:59.914Z,11.27
2022-11-11T23:48:46.243Z,11.07
2022-11-11T23:51:32.483Z,11.07
2022-11-11T23:54:20.894Z,10.82
2022-11-11T23:57:07.337Z,11.48
2022-11-11T23:59:53.771Z,13.75
